sensor_id;sensor_type;location;lat;lon;timestamp;P1;durP1;ratioP1;P2;durP2;ratioP2
1024;SDS011;501;48.214;11.350;2023-04-15T00:01:07;9.03;;;4.10;;
1024;SDS011;501;48.214;11.350;2023-04-15T00:03:33;7.70;;;3.30;;
1024;SDS011;501;48.214;11.350;2023-04-15T00:06:00;5.07;;;3.40;;
1024;SDS011;501;48.214;11.350;2023-04-15T00:08:25;4.23;;;3.47;;
1024;SDS011;501;48.214;11.350;2023-04-15T00:10:51;7.77;;;3.77;;
1024;SDS011;501;48.214;11.350;2023-04-15T00:13:17;8.10;;;3.50;;
1024;SDS011;501;48.214;11.350;2023-04-15T00:15:43;4.47;;;4.07;;
1024;SDS011;501;48.214;11.350;2023-04-15T00:18:09;5.03;;;4.03;;
1024;SDS011;501;48.214;11.350;2023-04-15T00:20:34;8.53;;;3.27;;
1024;SDS011;501;48.214;11.350;2023-04-15T00:23:01;5.23;;;3.10;;
1024;SDS011;501;48.214;11.350;2023-04-15T00:25:27;4.87;;;4.37;;
1024;SDS011;501;48.214;11.350;2023-04-15T00:27:53;4.27;;;3.87;;
1024;SDS011;501;48.214;11.350;2023-04-15T00:30:19;7.43;;;3.67;;
1024;SDS011;501;48.214;11.350;2023-04-15T00:32:44;5.83;;;4.17;;
1024;SDS011;501;48.214;11.350;2023-04-15T00:35:10;5.60;;;3.67;;
1024;SDS011;501;48.214;11.350;2023-04-15T00:37:36;5.30;;;3.60;;
1024;SDS011;501;48.214;11.350;2023-04-15T00:40:02;6.60;;;4.37;;
1024;SDS011;501;48.214;11.350;2023-04-15T00:42:30;6.13;;;3.70;;
1024;SDS011;501;48.214;11.350;2023-04-15T00:44:56;6.10;;;4.70;;
1024;SDS011;501;48.214;11.350;2023-04-15T00:47:21;5.10;;;4.60;;
1024;SDS011;501;48.214;11.350;2023-04-15T00:49:47;5.70;;;4.10;;
1024;SDS011;501;48.214;11.350;2023-04-15T00:52:13;4.43;;;4.03;;
1024;SDS011;501;48.214;11.350;2023-04-15T00:54:39;7.80;;;4.90;;
1024;SDS011;501;48.214;11.350;2023-04-15T00:57:05;7.90;;;4.80;;
1024;SDS011;501;48.214;11.350;2023-04-15T00:59:31;4.63;;;4.00;;
1024;SDS011;501;48.214;11.350;2023-04-15T01:01:58;4.63;;;3.73;;
1024;SDS011;501;48.214;11.350;2023-04-15T01:04:24;6.67;;;4.37;;
1024;SDS011;501;48.214;11.350;2023-04-15T01:09:38;5.63;;;4.13;;
1024;SDS011;501;48.214;11.350;2023-04-15T01:12:04;6.10;;;4.53;;
1024;SDS011;501;48.214;11.350;2023-04-15T01:14:31;6.00;;;5.40;;
1024;SDS011;501;48.214;11.350;2023-04-15T01:16:58;7.90;;;5.00;;
1024;SDS011;501;48.214;11.350;2023-04-15T01:19:23;5.37;;;4.20;;
1024;SDS011;501;48.214;11.350;2023-04-15T01:21:50;6.33;;;4.90;;
1024;SDS011;501;48.214;11.350;2023-04-15T01:24:17;5.23;;;4.60;;
1024;SDS011;501;48.214;11.350;2023-04-15T01:26:43;7.40;;;4.93;;
1024;SDS011;501;48.214;11.350;2023-04-15T01:29:10;6.10;;;4.13;;
1024;SDS011;501;48.214;11.350;2023-04-15T01:31:36;5.53;;;4.20;;
1024;SDS011;501;48.214;11.350;2023-04-15T01:34:01;11.27;;;4.73;;
1024;SDS011;501;48.214;11.350;2023-04-15T01:36:27;4.90;;;4.47;;
1024;SDS011;501;48.214;11.350;2023-04-15T01:38:54;5.00;;;4.50;;
1024;SDS011;501;48.214;11.350;2023-04-15T01:41:24;4.87;;;4.37;;
1024;SDS011;501;48.214;11.350;2023-04-15T01:43:52;8.00;;;4.83;;
1024;SDS011;501;48.214;11.350;2023-04-15T01:46:18;8.87;;;5.67;;
1024;SDS011;501;48.214;11.350;2023-04-15T01:48:44;5.17;;;4.40;;
1024;SDS011;501;48.214;11.350;2023-04-15T01:51:10;5.47;;;4.10;;
1024;SDS011;501;48.214;11.350;2023-04-15T01:53:37;5.13;;;4.47;;
1024;SDS011;501;48.214;11.350;2023-04-15T01:56:03;6.07;;;4.70;;
1024;SDS011;501;48.214;11.350;2023-04-15T01:58:29;7.17;;;4.53;;
1024;SDS011;501;48.214;11.350;2023-04-15T02:00:55;5.17;;;3.87;;
1024;SDS011;501;48.214;11.350;2023-04-15T02:03:21;6.03;;;4.57;;
1024;SDS011;501;48.214;11.350;2023-04-15T02:05:47;4.90;;;4.47;;
1024;SDS011;501;48.214;11.350;2023-04-15T02:08:13;5.60;;;4.27;;
1024;SDS011;501;48.214;11.350;2023-04-15T02:10:38;4.87;;;4.00;;
1024;SDS011;501;48.214;11.350;2023-04-15T02:13:04;8.87;;;4.40;;
1024;SDS011;501;48.214;11.350;2023-04-15T02:15:30;5.23;;;3.90;;
1024;SDS011;501;48.214;11.350;2023-04-15T02:17:55;9.43;;;5.20;;
1024;SDS011;501;48.214;11.350;2023-04-15T02:20:23;5.93;;;3.70;;
1024;SDS011;501;48.214;11.350;2023-04-15T02:22:48;4.83;;;4.23;;
1024;SDS011;501;48.214;11.350;2023-04-15T02:25:14;7.03;;;4.70;;
1024;SDS011;501;48.214;11.350;2023-04-15T02:27:44;6.00;;;4.07;;
1024;SDS011;501;48.214;11.350;2023-04-15T02:30:10;5.77;;;3.93;;
1024;SDS011;501;48.214;11.350;2023-04-15T02:32:35;6.33;;;4.43;;
1024;SDS011;501;48.214;11.350;2023-04-15T02:35:05;4.77;;;3.70;;
1024;SDS011;501;48.214;11.350;2023-04-15T02:37:33;6.93;;;4.23;;
1024;SDS011;501;48.214;11.350;2023-04-15T02:40:05;11.20;;;4.20;;
1024;SDS011;501;48.214;11.350;2023-04-15T02:42:40;6.87;;;4.30;;
1024;SDS011;501;48.214;11.350;2023-04-15T02:45:07;9.20;;;4.37;;
1024;SDS011;501;48.214;11.350;2023-04-15T02:47:33;5.77;;;5.17;;
1024;SDS011;501;48.214;11.350;2023-04-15T02:50:01;4.80;;;3.73;;
1024;SDS011;501;48.214;11.350;2023-04-15T02:52:27;8.27;;;4.00;;
1024;SDS011;501;48.214;11.350;2023-04-15T02:54:53;4.50;;;3.90;;
1024;SDS011;501;48.214;11.350;2023-04-15T02:57:24;6.60;;;4.50;;
1024;SDS011;501;48.214;11.350;2023-04-15T02:59:51;7.00;;;4.63;;
1024;SDS011;501;48.214;11.350;2023-04-15T03:02:16;8.30;;;3.60;;
1024;SDS011;501;48.214;11.350;2023-04-15T03:04:42;5.57;;;4.70;;
1024;SDS011;501;48.214;11.350;2023-04-15T03:07:07;4.40;;;3.33;;
1024;SDS011;501;48.214;11.350;2023-04-15T03:09:33;4.67;;;4.07;;
1024;SDS011;501;48.214;11.350;2023-04-15T03:11:59;5.80;;;3.80;;
1024;SDS011;501;48.214;11.350;2023-04-15T03:14:24;6.13;;;3.70;;
1024;SDS011;501;48.214;11.350;2023-04-15T03:16:50;5.07;;;4.10;;
1024;SDS011;501;48.214;11.350;2023-04-15T03:19:16;4.53;;;3.77;;
1024;SDS011;501;48.214;11.350;2023-04-15T03:21:42;5.43;;;4.40;;
1024;SDS011;501;48.214;11.350;2023-04-15T03:24:07;5.83;;;4.30;;
1024;SDS011;501;48.214;11.350;2023-04-15T03:26:33;4.10;;;3.70;;
1024;SDS011;501;48.214;11.350;2023-04-15T03:28:59;7.47;;;3.93;;
1024;SDS011;501;48.214;11.350;2023-04-15T03:31:25;4.87;;;3.50;;
1024;SDS011;501;48.214;11.350;2023-04-15T03:33:50;9.00;;;3.60;;
1024;SDS011;501;48.214;11.350;2023-04-15T03:36:16;4.30;;;3.40;;
1024;SDS011;501;48.214;11.350;2023-04-15T03:38:42;6.33;;;3.53;;
1024;SDS011;501;48.214;11.350;2023-04-15T03:41:07;8.17;;;4.07;;
1024;SDS011;501;48.214;11.350;2023-04-15T03:43:33;5.37;;;3.40;;
1024;SDS011;501;48.214;11.350;2023-04-15T03:45:59;3.90;;;3.50;;
1024;SDS011;501;48.214;11.350;2023-04-15T03:48:25;4.60;;;3.57;;
1024;SDS011;501;48.214;11.350;2023-04-15T03:50:51;6.93;;;4.07;;
1024;SDS011;501;48.214;11.350;2023-04-15T03:53:16;4.90;;;3.30;;
1024;SDS011;501;48.214;11.350;2023-04-15T03:55:42;4.20;;;3.80;;
1024;SDS011;501;48.214;11.350;2023-04-15T03:58:08;3.93;;;3.50;;
1024;SDS011;501;48.214;11.350;2023-04-15T04:00:36;5.70;;;4.30;;
1024;SDS011;501;48.214;11.350;2023-04-15T04:03:02;5.47;;;4.10;;
1024;SDS011;501;48.214;11.350;2023-04-15T04:05:28;6.17;;;3.20;;
1024;SDS011;501;48.214;11.350;2023-04-15T04:07:54;6.33;;;4.60;;
1024;SDS011;501;48.214;11.350;2023-04-15T04:10:20;7.60;;;3.93;;
1024;SDS011;501;48.214;11.350;2023-04-15T04:12:45;4.90;;;3.80;;
1024;SDS011;501;48.214;11.350;2023-04-15T04:15:11;4.17;;;3.77;;
1024;SDS011;501;48.214;11.350;2023-04-15T04:17:37;4.80;;;3.60;;
1024;SDS011;501;48.214;11.350;2023-04-15T04:20:02;6.23;;;4.07;;
1024;SDS011;501;48.214;11.350;2023-04-15T04:22:29;4.20;;;3.73;;
1024;SDS011;501;48.214;11.350;2023-04-15T04:24:55;3.03;;;2.73;;
1024;SDS011;501;48.214;11.350;2023-04-15T04:27:23;13.03;;;3.60;;
1024;SDS011;501;48.214;11.350;2023-04-15T04:29:49;8.10;;;3.37;;
1024;SDS011;501;48.214;11.350;2023-04-15T04:32:14;4.60;;;2.90;;
1024;SDS011;501;48.214;11.350;2023-04-15T04:34:40;6.13;;;3.93;;
1024;SDS011;501;48.214;11.350;2023-04-15T04:37:05;4.40;;;3.20;;
1024;SDS011;501;48.214;11.350;2023-04-15T04:39:31;4.60;;;3.60;;
1024;SDS011;501;48.214;11.350;2023-04-15T04:41:57;4.90;;;3.30;;
1024;SDS011;501;48.214;11.350;2023-04-15T04:44:22;3.60;;;3.30;;
1024;SDS011;501;48.214;11.350;2023-04-15T04:46:48;5.67;;;3.97;;
1024;SDS011;501;48.214;11.350;2023-04-15T04:49:13;6.47;;;4.03;;
1024;SDS011;501;48.214;11.350;2023-04-15T04:51:39;7.33;;;3.30;;
1024;SDS011;501;48.214;11.350;2023-04-15T04:54:05;4.80;;;3.03;;
1024;SDS011;501;48.214;11.350;2023-04-15T04:56:30;6.00;;;3.87;;
1024;SDS011;501;48.214;11.350;2023-04-15T04:58:58;5.30;;;3.93;;
1024;SDS011;501;48.214;11.350;2023-04-15T05:01:23;7.30;;;3.60;;
1024;SDS011;501;48.214;11.350;2023-04-15T05:03:51;3.30;;;3.03;;
1024;SDS011;501;48.214;11.350;2023-04-15T05:06:17;4.47;;;3.37;;
1024;SDS011;501;48.214;11.350;2023-04-15T05:08:42;4.60;;;2.70;;
1024;SDS011;501;48.214;11.350;2023-04-15T05:11:08;5.47;;;3.27;;
1024;SDS011;501;48.214;11.350;2023-04-15T05:13:34;4.93;;;3.00;;
1024;SDS011;501;48.214;11.350;2023-04-15T05:16:02;4.37;;;3.20;;
1024;SDS011;501;48.214;11.350;2023-04-15T05:18:29;4.33;;;2.80;;
1024;SDS011;501;48.214;11.350;2023-04-15T05:20:55;2.40;;;2.20;;
1024;SDS011;501;48.214;11.350;2023-04-15T05:23:20;5.27;;;2.07;;
1024;SDS011;501;48.214;11.350;2023-04-15T05:25:46;5.00;;;2.60;;
1024;SDS011;501;48.214;11.350;2023-04-15T05:28:11;2.73;;;2.00;;
1024;SDS011;501;48.214;11.350;2023-04-15T05:30:37;3.63;;;1.87;;
1024;SDS011;501;48.214;11.350;2023-04-15T05:33:03;2.33;;;2.13;;
1024;SDS011;501;48.214;11.350;2023-04-15T05:35:29;2.27;;;2.00;;
1024;SDS011;501;48.214;11.350;2023-04-15T05:37:54;3.67;;;1.80;;
1024;SDS011;501;48.214;11.350;2023-04-15T05:40:20;3.60;;;2.50;;
1024;SDS011;501;48.214;11.350;2023-04-15T05:42:46;3.77;;;1.90;;
1024;SDS011;501;48.214;11.350;2023-04-15T05:45:11;2.33;;;1.90;;
1024;SDS011;501;48.214;11.350;2023-04-15T05:47:37;3.30;;;1.63;;
1024;SDS011;501;48.214;11.350;2023-04-15T05:50:03;3.57;;;2.60;;
1024;SDS011;501;48.214;11.350;2023-04-15T05:52:30;3.47;;;1.90;;
1024;SDS011;501;48.214;11.350;2023-04-15T05:54:56;3.90;;;2.10;;
1024;SDS011;501;48.214;11.350;2023-04-15T05:57:21;3.60;;;2.53;;
1024;SDS011;501;48.214;11.350;2023-04-15T05:59:47;8.33;;;2.60;;
1024;SDS011;501;48.214;11.350;2023-04-15T06:02:13;3.87;;;2.60;;
1024;SDS011;501;48.214;11.350;2023-04-15T06:04:39;2.10;;;1.90;;
1024;SDS011;501;48.214;11.350;2023-04-15T06:07:04;6.00;;;2.47;;
1024;SDS011;501;48.214;11.350;2023-04-15T06:09:30;5.83;;;2.27;;
1024;SDS011;501;48.214;11.350;2023-04-15T06:11:56;2.30;;;2.10;;
1024;SDS011;501;48.214;11.350;2023-04-15T06:14:23;2.23;;;2.00;;
1024;SDS011;501;48.214;11.350;2023-04-15T06:16:48;2.87;;;2.07;;
1024;SDS011;501;48.214;11.350;2023-04-15T06:19:14;2.50;;;1.63;;
1024;SDS011;501;48.214;11.350;2023-04-15T06:21:40;4.23;;;1.80;;
1024;SDS011;501;48.214;11.350;2023-04-15T06:24:05;2.20;;;2.00;;
1024;SDS011;501;48.214;11.350;2023-04-15T06:26:31;5.73;;;2.37;;
1024;SDS011;501;48.214;11.350;2023-04-15T06:28:57;2.93;;;2.10;;
1024;SDS011;501;48.214;11.350;2023-04-15T06:31:22;3.40;;;1.83;;
1024;SDS011;501;48.214;11.350;2023-04-15T06:33:48;2.00;;;1.90;;
1024;SDS011;501;48.214;11.350;2023-04-15T06:36:14;2.87;;;1.80;;
1024;SDS011;501;48.214;11.350;2023-04-15T06:38:39;5.47;;;1.43;;
1024;SDS011;501;48.214;11.350;2023-04-15T06:41:05;5.30;;;1.60;;
1024;SDS011;501;48.214;11.350;2023-04-15T06:43:31;2.40;;;2.03;;
1024;SDS011;501;48.214;11.350;2023-04-15T06:45:57;6.60;;;2.23;;
1024;SDS011;501;48.214;11.350;2023-04-15T06:48:23;3.43;;;1.60;;
1024;SDS011;501;48.214;11.350;2023-04-15T06:50:48;4.10;;;1.93;;
1024;SDS011;501;48.214;11.350;2023-04-15T06:53:14;2.90;;;1.83;;
1024;SDS011;501;48.214;11.350;2023-04-15T06:55:40;1.47;;;1.33;;
1024;SDS011;501;48.214;11.350;2023-04-15T06:58:06;3.00;;;1.90;;
1024;SDS011;501;48.214;11.350;2023-04-15T07:00:32;2.03;;;1.53;;
1024;SDS011;501;48.214;11.350;2023-04-15T07:02:58;3.23;;;1.80;;
1024;SDS011;501;48.214;11.350;2023-04-15T07:05:27;2.20;;;1.70;;
1024;SDS011;501;48.214;11.350;2023-04-15T07:07:56;2.50;;;1.80;;
1024;SDS011;501;48.214;11.350;2023-04-15T07:10:22;1.63;;;1.53;;
1024;SDS011;501;48.214;11.350;2023-04-15T07:12:48;4.10;;;2.03;;
1024;SDS011;501;48.214;11.350;2023-04-15T07:15:15;8.70;;;1.90;;
1024;SDS011;501;48.214;11.350;2023-04-15T07:17:41;5.57;;;1.60;;
1024;SDS011;501;48.214;11.350;2023-04-15T07:20:07;1.90;;;1.80;;
1024;SDS011;501;48.214;11.350;2023-04-15T07:22:33;2.37;;;1.93;;
1024;SDS011;501;48.214;11.350;2023-04-15T07:24:59;2.87;;;1.50;;
1024;SDS011;501;48.214;11.350;2023-04-15T07:27:25;2.17;;;1.97;;
1024;SDS011;501;48.214;11.350;2023-04-15T07:29:51;1.77;;;1.37;;
1024;SDS011;501;48.214;11.350;2023-04-15T07:32:17;3.37;;;1.60;;
1024;SDS011;501;48.214;11.350;2023-04-15T07:34:43;2.13;;;1.40;;
1024;SDS011;501;48.214;11.350;2023-04-15T07:37:08;1.73;;;1.57;;
1024;SDS011;501;48.214;11.350;2023-04-15T07:39:34;3.47;;;1.70;;
1024;SDS011;501;48.214;11.350;2023-04-15T07:42:01;3.30;;;1.80;;
1024;SDS011;501;48.214;11.350;2023-04-15T07:44:26;2.47;;;1.63;;
1024;SDS011;501;48.214;11.350;2023-04-15T07:46:52;2.10;;;1.53;;
1024;SDS011;501;48.214;11.350;2023-04-15T07:49:18;3.50;;;1.47;;
1024;SDS011;501;48.214;11.350;2023-04-15T07:51:45;3.33;;;1.90;;
1024;SDS011;501;48.214;11.350;2023-04-15T07:54:11;1.87;;;1.70;;
1024;SDS011;501;48.214;11.350;2023-04-15T07:56:36;4.30;;;2.87;;
1024;SDS011;501;48.214;11.350;2023-04-15T07:59:02;2.30;;;1.40;;
1024;SDS011;501;48.214;11.350;2023-04-15T08:01:30;3.83;;;1.97;;
1024;SDS011;501;48.214;11.350;2023-04-15T08:03:55;3.40;;;1.67;;
1024;SDS011;501;48.214;11.350;2023-04-15T08:06:21;2.90;;;1.70;;
1024;SDS011;501;48.214;11.350;2023-04-15T08:08:47;1.87;;;1.70;;
1024;SDS011;501;48.214;11.350;2023-04-15T08:11:13;3.37;;;1.70;;
1024;SDS011;501;48.214;11.350;2023-04-15T08:13:38;2.10;;;1.20;;
1024;SDS011;501;48.214;11.350;2023-04-15T08:16:18;4.10;;;1.47;;
1024;SDS011;501;48.214;11.350;2023-04-15T08:18:49;4.50;;;1.70;;
1024;SDS011;501;48.214;11.350;2023-04-15T08:21:17;3.03;;;1.30;;
1024;SDS011;501;48.214;11.350;2023-04-15T08:23:43;2.77;;;1.50;;
1024;SDS011;501;48.214;11.350;2023-04-15T08:26:11;4.23;;;1.80;;
1024;SDS011;501;48.214;11.350;2023-04-15T08:28:37;3.50;;;2.17;;
1024;SDS011;501;48.214;11.350;2023-04-15T08:31:04;3.77;;;1.67;;
1024;SDS011;501;48.214;11.350;2023-04-15T08:33:30;1.80;;;1.40;;
1024;SDS011;501;48.214;11.350;2023-04-15T08:35:56;1.83;;;1.40;;
1024;SDS011;501;48.214;11.350;2023-04-15T08:38:22;5.10;;;1.80;;
1024;SDS011;501;48.214;11.350;2023-04-15T08:40:48;3.00;;;1.87;;
1024;SDS011;501;48.214;11.350;2023-04-15T08:43:16;3.73;;;2.40;;
1024;SDS011;501;48.214;11.350;2023-04-15T08:45:48;2.93;;;1.67;;
1024;SDS011;501;48.214;11.350;2023-04-15T08:48:16;1.50;;;1.40;;
1024;SDS011;501;48.214;11.350;2023-04-15T08:50:42;2.20;;;1.60;;
1024;SDS011;501;48.214;11.350;2023-04-15T08:53:09;3.93;;;2.13;;
1024;SDS011;501;48.214;11.350;2023-04-15T08:55:35;4.70;;;2.33;;
1024;SDS011;501;48.214;11.350;2023-04-15T08:58:09;3.57;;;1.73;;
1024;SDS011;501;48.214;11.350;2023-04-15T09:00:35;3.60;;;2.00;;
1024;SDS011;501;48.214;11.350;2023-04-15T09:03:03;2.40;;;2.10;;
1024;SDS011;501;48.214;11.350;2023-04-15T09:05:36;6.73;;;2.00;;
1024;SDS011;501;48.214;11.350;2023-04-15T09:08:02;3.40;;;1.80;;
1024;SDS011;501;48.214;11.350;2023-04-15T09:10:29;3.80;;;2.10;;
1024;SDS011;501;48.214;11.350;2023-04-15T09:12:55;4.07;;;1.80;;
1024;SDS011;501;48.214;11.350;2023-04-15T09:15:23;2.30;;;2.10;;
1024;SDS011;501;48.214;11.350;2023-04-15T09:17:54;2.50;;;2.23;;
1024;SDS011;501;48.214;11.350;2023-04-15T09:20:20;2.90;;;2.00;;
1024;SDS011;501;48.214;11.350;2023-04-15T09:22:46;6.37;;;2.57;;
1024;SDS011;501;48.214;11.350;2023-04-15T09:27:54;3.23;;;2.23;;
1024;SDS011;501;48.214;11.350;2023-04-15T09:30:21;4.40;;;2.47;;
1024;SDS011;501;48.214;11.350;2023-04-15T09:32:55;2.70;;;1.80;;
1024;SDS011;501;48.214;11.350;2023-04-15T09:35:22;2.37;;;1.93;;
1024;SDS011;501;48.214;11.350;2023-04-15T09:37:49;2.70;;;2.10;;
1024;SDS011;501;48.214;11.350;2023-04-15T09:40:36;3.43;;;2.27;;
1024;SDS011;501;48.214;11.350;2023-04-15T09:43:05;3.73;;;2.17;;
1024;SDS011;501;48.214;11.350;2023-04-15T09:45:32;2.87;;;2.40;;
1024;SDS011;501;48.214;11.350;2023-04-15T09:48:00;4.47;;;2.50;;
1024;SDS011;501;48.214;11.350;2023-04-15T09:50:44;4.00;;;3.03;;
1024;SDS011;501;48.214;11.350;2023-04-15T09:53:10;3.70;;;2.90;;
1024;SDS011;501;48.214;11.350;2023-04-15T09:55:44;3.30;;;2.73;;
1024;SDS011;501;48.214;11.350;2023-04-15T09:58:26;3.17;;;2.77;;
1024;SDS011;501;48.214;11.350;2023-04-15T10:00:53;5.27;;;2.63;;
1024;SDS011;501;48.214;11.350;2023-04-15T10:05:58;3.13;;;2.70;;
1024;SDS011;501;48.214;11.350;2023-04-15T10:08:29;7.10;;;3.10;;
1024;SDS011;501;48.214;11.350;2023-04-15T10:10:57;5.80;;;3.60;;
1024;SDS011;501;48.214;11.350;2023-04-15T10:13:24;7.43;;;3.47;;
1024;SDS011;501;48.214;11.350;2023-04-15T10:15:53;5.00;;;2.97;;
1024;SDS011;501;48.214;11.350;2023-04-15T10:18:22;4.10;;;3.23;;
1024;SDS011;501;48.214;11.350;2023-04-15T10:20:50;2.87;;;2.40;;
1024;SDS011;501;48.214;11.350;2023-04-15T10:23:17;5.07;;;2.80;;
1024;SDS011;501;48.214;11.350;2023-04-15T10:25:44;2.87;;;2.50;;
1024;SDS011;501;48.214;11.350;2023-04-15T10:28:11;2.77;;;2.50;;
1024;SDS011;501;48.214;11.350;2023-04-15T10:30:38;3.57;;;3.23;;
1024;SDS011;501;48.214;11.350;2023-04-15T10:33:04;3.00;;;2.70;;
1024;SDS011;501;48.214;11.350;2023-04-15T10:35:31;3.60;;;3.03;;
1024;SDS011;501;48.214;11.350;2023-04-15T10:37:58;5.40;;;3.10;;
1024;SDS011;501;48.214;11.350;2023-04-15T10:40:25;3.53;;;3.13;;
1024;SDS011;501;48.214;11.350;2023-04-15T10:42:56;5.03;;;3.27;;
1024;SDS011;501;48.214;11.350;2023-04-15T10:45:27;4.43;;;3.20;;
1024;SDS011;501;48.214;11.350;2023-04-15T10:48:00;3.77;;;3.10;;
1024;SDS011;501;48.214;11.350;2023-04-15T10:50:27;5.33;;;3.97;;
1024;SDS011;501;48.214;11.350;2023-04-15T10:52:54;4.10;;;3.43;;
1024;SDS011;501;48.214;11.350;2023-04-15T10:57:53;4.40;;;3.50;;
1024;SDS011;501;48.214;11.350;2023-04-15T11:00:26;5.57;;;3.17;;
1024;SDS011;501;48.214;11.350;2023-04-15T11:02:55;5.20;;;3.43;;
1024;SDS011;501;48.214;11.350;2023-04-15T11:08:06;4.87;;;3.80;;
1024;SDS011;501;48.214;11.350;2023-04-15T11:13:02;6.77;;;3.90;;
1024;SDS011;501;48.214;11.350;2023-04-15T11:20:39;7.13;;;4.70;;
1024;SDS011;501;48.214;11.350;2023-04-15T11:23:07;6.50;;;4.20;;
1024;SDS011;501;48.214;11.350;2023-04-15T11:25:33;4.07;;;3.67;;
1024;SDS011;501;48.214;11.350;2023-04-15T11:28:01;6.73;;;3.50;;
1024;SDS011;501;48.214;11.350;2023-04-15T11:30:29;7.40;;;4.60;;
1024;SDS011;501;48.214;11.350;2023-04-15T11:32:58;4.90;;;3.50;;
1024;SDS011;501;48.214;11.350;2023-04-15T11:35:24;6.97;;;3.80;;
1024;SDS011;501;48.214;11.350;2023-04-15T11:37:50;8.00;;;4.47;;
1024;SDS011;501;48.214;11.350;2023-04-15T11:40:19;4.63;;;4.17;;
1024;SDS011;501;48.214;11.350;2023-04-15T11:43:02;7.90;;;3.90;;
1024;SDS011;501;48.214;11.350;2023-04-15T11:45:32;9.23;;;4.37;;
1024;SDS011;501;48.214;11.350;2023-04-15T11:48:05;4.20;;;3.10;;
1024;SDS011;501;48.214;11.350;2023-04-15T11:50:31;4.47;;;3.37;;
1024;SDS011;501;48.214;11.350;2023-04-15T11:52:58;7.00;;;4.47;;
1024;SDS011;501;48.214;11.350;2023-04-15T11:55:26;6.50;;;4.70;;
1024;SDS011;501;48.214;11.350;2023-04-15T11:58:05;6.27;;;3.37;;
1024;SDS011;501;48.214;11.350;2023-04-15T12:00:35;6.17;;;4.10;;
1024;SDS011;501;48.214;11.350;2023-04-15T12:03:16;4.60;;;3.90;;
1024;SDS011;501;48.214;11.350;2023-04-15T12:13:57;5.70;;;4.80;;
1024;SDS011;501;48.214;11.350;2023-04-15T12:16:26;5.33;;;4.13;;
1024;SDS011;501;48.214;11.350;2023-04-15T12:18:53;8.67;;;4.00;;
1024;SDS011;501;48.214;11.350;2023-04-15T12:21:26;4.67;;;4.20;;
1024;SDS011;501;48.214;11.350;2023-04-15T12:24:00;4.70;;;3.23;;
1024;SDS011;501;48.214;11.350;2023-04-15T12:26:28;4.93;;;3.57;;
1024;SDS011;501;48.214;11.350;2023-04-15T12:29:05;4.20;;;3.37;;
1024;SDS011;501;48.214;11.350;2023-04-15T12:31:33;3.30;;;3.00;;
1024;SDS011;501;48.214;11.350;2023-04-15T12:34:00;3.80;;;3.07;;
1024;SDS011;501;48.214;11.350;2023-04-15T12:36:27;3.47;;;2.70;;
1024;SDS011;501;48.214;11.350;2023-04-15T12:38:55;3.70;;;3.07;;
1024;SDS011;501;48.214;11.350;2023-04-15T12:41:21;4.40;;;3.00;;
1024;SDS011;501;48.214;11.350;2023-04-15T12:43:48;3.67;;;3.00;;
1024;SDS011;501;48.214;11.350;2023-04-15T12:46:14;2.13;;;1.93;;
1024;SDS011;501;48.214;11.350;2023-04-15T12:48:40;4.40;;;2.57;;
1024;SDS011;501;48.214;11.350;2023-04-15T12:51:05;6.10;;;2.10;;
1024;SDS011;501;48.214;11.350;2023-04-15T12:53:31;3.30;;;2.50;;
1024;SDS011;501;48.214;11.350;2023-04-15T12:55:57;4.27;;;3.00;;
1024;SDS011;501;48.214;11.350;2023-04-15T12:58:22;3.50;;;2.97;;
1024;SDS011;501;48.214;11.350;2023-04-15T13:00:48;4.13;;;3.10;;
1024;SDS011;501;48.214;11.350;2023-04-15T13:03:14;6.30;;;3.00;;
1024;SDS011;501;48.214;11.350;2023-04-15T13:05:40;3.73;;;3.43;;
1024;SDS011;501;48.214;11.350;2023-04-15T13:08:06;2.90;;;2.70;;
1024;SDS011;501;48.214;11.350;2023-04-15T13:10:32;5.13;;;3.00;;
1024;SDS011;501;48.214;11.350;2023-04-15T13:13:00;3.10;;;2.80;;
1024;SDS011;501;48.214;11.350;2023-04-15T13:15:28;3.00;;;2.67;;
1024;SDS011;501;48.214;11.350;2023-04-15T13:17:54;4.50;;;2.87;;
1024;SDS011;501;48.214;11.350;2023-04-15T13:20:19;5.43;;;3.23;;
1024;SDS011;501;48.214;11.350;2023-04-15T13:22:46;5.07;;;3.63;;
1024;SDS011;501;48.214;11.350;2023-04-15T13:25:11;4.03;;;3.70;;
1024;SDS011;501;48.214;11.350;2023-04-15T13:27:37;5.70;;;4.27;;
1024;SDS011;501;48.214;11.350;2023-04-15T13:30:03;5.40;;;4.00;;
1024;SDS011;501;48.214;11.350;2023-04-15T13:32:29;4.73;;;3.93;;
1024;SDS011;501;48.214;11.350;2023-04-15T13:34:55;5.17;;;3.30;;
1024;SDS011;501;48.214;11.350;2023-04-15T13:37:25;5.20;;;4.20;;
1024;SDS011;501;48.214;11.350;2023-04-15T13:39:51;6.10;;;3.97;;
1024;SDS011;501;48.214;11.350;2023-04-15T13:42:18;3.87;;;3.57;;
1024;SDS011;501;48.214;11.350;2023-04-15T13:44:43;4.17;;;3.70;;
1024;SDS011;501;48.214;11.350;2023-04-15T13:47:09;7.30;;;3.90;;
1024;SDS011;501;48.214;11.350;2023-04-15T13:49:35;6.20;;;3.87;;
1024;SDS011;501;48.214;11.350;2023-04-15T13:52:00;3.40;;;3.07;;
1024;SDS011;501;48.214;11.350;2023-04-15T13:54:26;3.87;;;2.80;;
1024;SDS011;501;48.214;11.350;2023-04-15T13:56:58;4.80;;;3.47;;
1024;SDS011;501;48.214;11.350;2023-04-15T13:59:23;4.27;;;3.37;;
1024;SDS011;501;48.214;11.350;2023-04-15T14:01:49;6.20;;;3.83;;
1024;SDS011;501;48.214;11.350;2023-04-15T14:04:15;3.97;;;3.30;;
1024;SDS011;501;48.214;11.350;2023-04-15T14:06:40;2.53;;;2.33;;
1024;SDS011;501;48.214;11.350;2023-04-15T14:09:06;4.37;;;3.20;;
1024;SDS011;501;48.214;11.350;2023-04-15T14:11:32;5.43;;;3.27;;
1024;SDS011;501;48.214;11.350;2023-04-15T14:13:59;4.23;;;2.87;;
1024;SDS011;501;48.214;11.350;2023-04-15T14:16:25;3.30;;;3.00;;
1024;SDS011;501;48.214;11.350;2023-04-15T14:18:50;3.70;;;3.07;;
1024;SDS011;501;48.214;11.350;2023-04-15T14:21:16;3.10;;;2.80;;
1024;SDS011;501;48.214;11.350;2023-04-15T14:23:42;6.90;;;2.70;;
1024;SDS011;501;48.214;11.350;2023-04-15T14:26:07;4.30;;;2.50;;
1024;SDS011;501;48.214;11.350;2023-04-15T14:28:33;4.27;;;2.80;;
1024;SDS011;501;48.214;11.350;2023-04-15T14:30:59;5.73;;;2.83;;
1024;SDS011;501;48.214;11.350;2023-04-15T14:33:25;3.47;;;3.17;;
1024;SDS011;501;48.214;11.350;2023-04-15T14:35:51;3.00;;;2.70;;
1024;SDS011;501;48.214;11.350;2023-04-15T14:38:16;3.17;;;2.87;;
1024;SDS011;501;48.214;11.350;2023-04-15T14:40:42;3.90;;;2.90;;
1024;SDS011;501;48.214;11.350;2023-04-15T14:43:08;4.43;;;3.00;;
1024;SDS011;501;48.214;11.350;2023-04-15T14:45:34;3.13;;;2.67;;
1024;SDS011;501;48.214;11.350;2023-04-15T14:48:00;3.53;;;2.73;;
1024;SDS011;501;48.214;11.350;2023-04-15T14:50:26;3.33;;;2.97;;
1024;SDS011;501;48.214;11.350;2023-04-15T14:52:52;3.30;;;2.50;;
1024;SDS011;501;48.214;11.350;2023-04-15T14:55:17;4.00;;;3.40;;
1024;SDS011;501;48.214;11.350;2023-04-15T14:57:43;4.17;;;2.93;;
1024;SDS011;501;48.214;11.350;2023-04-15T15:00:09;3.63;;;3.23;;
1024;SDS011;501;48.214;11.350;2023-04-15T15:02:35;5.50;;;3.47;;
1024;SDS011;501;48.214;11.350;2023-04-15T15:05:02;3.30;;;2.80;;
1024;SDS011;501;48.214;11.350;2023-04-15T15:07:27;4.47;;;3.30;;
1024;SDS011;501;48.214;11.350;2023-04-15T15:09:53;3.73;;;3.30;;
1024;SDS011;501;48.214;11.350;2023-04-15T15:12:20;3.43;;;3.13;;
1024;SDS011;501;48.214;11.350;2023-04-15T15:14:47;7.83;;;4.30;;
1024;SDS011;501;48.214;11.350;2023-04-15T15:17:13;4.30;;;3.80;;
1024;SDS011;501;48.214;11.350;2023-04-15T15:19:39;5.00;;;3.67;;
1024;SDS011;501;48.214;11.350;2023-04-15T15:22:04;6.10;;;4.53;;
1024;SDS011;501;48.214;11.350;2023-04-15T15:24:30;5.47;;;4.10;;
1024;SDS011;501;48.214;11.350;2023-04-15T15:26:56;4.57;;;3.70;;
1024;SDS011;501;48.214;11.350;2023-04-15T15:29:21;9.40;;;3.77;;
1024;SDS011;501;48.214;11.350;2023-04-15T15:31:47;4.83;;;3.77;;
1024;SDS011;501;48.214;11.350;2023-04-15T15:34:14;4.53;;;3.27;;
1024;SDS011;501;48.214;11.350;2023-04-15T15:36:40;4.80;;;2.90;;
1024;SDS011;501;48.214;11.350;2023-04-15T15:39:06;3.83;;;3.23;;
1024;SDS011;501;48.214;11.350;2023-04-15T15:41:32;6.10;;;3.97;;